Time;durP1;ratioP1;P1;durP2;ratioP2;P2;SDS_P1;SDS_P2;PMS_P1;PMS_P2;Temp;Humidity;BMP_temperature;BMP_pressure;BME280_temperature;BME280_humidity;BME280_pressure;Samples;Min_cycle;Max_cycle;Signal;HPM_P1;HPM_P2
2022/04/24 00:02:11;;;;;;;7.67;4.73;;;10.80;10.90;;;;;;4998935;28;20465;-83
2022/04/24 00:04:38;;;;;;;7.00;4.83;;;10.80;11.90;;;;;;4998858;28;20469;-82
2022/04/24 00:07:07;;;;;;;7.67;4.50;;;10.60;12.40;;;;;;4999624;28;20458;-83
2022/04/24 00:09:37;;;;;;;7.20;4.77;;;10.60;12.60;;;;;;4998141;28;20461;-83
2022/04/24 00:12:04;;;;;;;8.10;4.67;;;10.60;13.00;;;;;;4999187;28;20494;-83
2022/04/24 00:14:31;;;;;;;8.47;5.10;;;10.40;12.80;;;;;;4998762;28;20449;-83
2022/04/24 00:16:58;;;;;;;7.60;5.03;;;10.30;13.50;;;;;;4999440;28;20981;-83
2022/04/24 00:19:25;;;;;;;10.10;4.30;;;10.30;14.50;;;;;;4997824;28;20453;-81
2022/04/24 00:21:51;;;;;;;7.17;4.30;;;10.00;15.40;;;;;;4999032;28;20474;-83
2022/04/24 00:24:18;;;;;;;6.60;4.63;;;10.20;15.60;;;;;;4998872;28;20468;-83
2022/04/24 00:26:46;;;;;;;6.90;4.90;;;10.10;15.50;;;;;;4998793;28;20464;-83
2022/04/24 00:29:13;;;;;;;6.73;4.80;;;10.00;15.80;;;;;;4997760;28;20457;-83
2022/04/24 00:31:40;;;;;;;8.20;5.20;;;9.90;16.90;;;;;;4999099;28;20470;-83
2022/04/24 00:34:06;;;;;;;6.97;4.30;;;9.80;17.30;;;;;;4998217;28;20454;-83
2022/04/24 00:36:33;;;;;;;8.33;5.50;;;9.90;17.30;;;;;;4998963;28;20452;-83
2022/04/24 00:39:00;;;;;;;10.73;4.53;;;9.90;17.50;;;;;;4997755;28;20482;-83
2022/04/24 00:41:26;;;;;;;8.37;4.90;;;10.00;17.20;;;;;;4998892;28;20485;-83
2022/04/24 00:43:55;;;;;;;7.90;4.80;;;10.00;16.80;;;;;;4999169;28;20454;-83
2022/04/24 00:46:39;;;;;;;7.93;4.60;;;9.90;18.20;;;;;;4998524;28;20454;-83
2022/04/24 00:49:06;;;;;;;8.23;5.27;;;9.80;18.60;;;;;;4998690;28;20445;-83
2022/04/24 00:51:32;;;;;;;8.37;5.63;;;9.80;19.90;;;;;;4997971;28;20482;-83
2022/04/24 00:54:00;;;;;;;7.20;5.27;;;9.80;19.80;;;;;;4998966;28;20469;-83
2022/04/24 00:56:30;;;;;;;9.00;5.63;;;9.70;20.40;;;;;;4998455;28;20872;-84
2022/04/24 00:58:59;;;;;;;6.93;5.00;;;9.60;20.40;;;;;;4997843;28;20481;-84
2022/04/24 01:01:26;;;;;;;8.47;5.47;;;9.60;20.30;;;;;;4997781;28;20477;-83
2022/04/24 01:03:53;;;;;;;7.00;5.80;;;9.40;21.00;;;;;;4998041;28;20450;-83
2022/04/24 01:06:20;;;;;;;8.70;6.03;;;9.40;22.10;;;;;;4998041;28;20455;-83
2022/04/24 01:08:47;;;;;;;7.50;5.27;;;9.40;22.60;;;;;;4997569;28;20454;-83
2022/04/24 01:11:14;;;;;;;8.70;6.00;;;9.20;23.30;;;;;;4998341;28;20497;-84
2022/04/24 01:13:40;;;;;;;7.50;5.10;;;9.20;23.70;;;;;;4997793;28;20457;-83
2022/04/24 01:16:09;;;;;;;9.30;5.80;;;9.30;23.40;;;;;;4997698;28;20454;-83
2022/04/24 01:18:36;;;;;;;7.73;5.50;;;9.30;23.70;;;;;;4997441;28;21021;-83
2022/04/24 01:21:09;;;;;;;8.90;5.60;;;9.30;23.20;;;;;;4998304;28;20665;-83
2022/04/24 01:23:38;;;;;;;8.07;5.50;;;9.50;23.50;;;;;;4999136;28;20458;-83
2022/04/24 01:26:05;;;;;;;7.80;5.53;;;9.40;23.30;;;;;;4997592;28;20449;-84
2022/04/24 01:28:32;;;;;;;8.03;6.03;;;9.50;22.60;;;;;;4997213;28;20951;-83
2022/04/24 01:31:02;;;;;;;7.40;5.80;;;9.60;22.00;;;;;;4997636;28;20481;-83
2022/04/24 01:33:29;;;;;;;7.50;5.33;;;9.60;22.10;;;;;;4998068;28;20461;-83
2022/04/24 01:35:55;;;;;;;10.07;5.73;;;9.60;22.00;;;;;;4997693;28;20485;-83
2022/04/24 01:38:23;;;;;;;8.23;5.90;;;9.80;22.10;;;;;;4996285;28;20485;-83
2022/04/24 01:40:50;;;;;;;7.63;5.03;;;9.80;21.80;;;;;;4997512;28;20470;-83
2022/04/24 01:43:17;;;;;;;8.57;6.10;;;9.80;22.10;;;;;;4996940;28;20450;-83
2022/04/24 01:45:44;;;;;;;7.13;5.50;;;9.70;22.60;;;;;;4997612;28;20955;-84
2022/04/24 01:48:11;;;;;;;6.33;4.60;;;9.60;22.60;;;;;;4996811;28;20469;-83
2022/04/24 01:50:38;;;;;;;9.70;6.00;;;9.50;23.00;;;;;;4997641;28;20505;-83
2022/04/24 01:53:04;;;;;;;8.73;6.40;;;9.30;25.00;;;;;;4996920;28;20462;-83
2022/04/24 01:55:33;;;;;;;7.87;5.83;;;9.10;25.50;;;;;;4997560;28;20457;-83
2022/04/24 01:57:59;;;;;;;8.53;6.00;;;8.80;26.90;;;;;;4997519;28;20488;-82
2022/04/24 02:00:26;;;;;;;7.60;5.97;;;8.70;28.10;;;;;;4996244;28;20481;-83
2022/04/24 02:02:53;;;;;;;8.70;6.40;;;8.60;28.70;;;;;;4997530;28;20453;-84
2022/04/24 02:05:19;;;;;;;7.80;6.33;;;8.70;29.40;;;;;;4996705;28;20458;-83
2022/04/24 02:07:46;;;;;;;9.30;6.40;;;8.70;29.30;;;;;;4997639;28;20461;-83
2022/04/24 02:10:13;;;;;;;8.40;5.93;;;8.90;28.70;;;;;;4995853;28;20848;-84
2022/04/24 02:12:43;;;;;;;12.13;6.50;;;9.00;28.60;;;;;;4997049;28;20512;-82
2022/04/24 02:15:11;;;;;;;8.87;6.10;;;8.90;28.70;;;;;;4996915;28;20450;-83
2022/04/24 02:17:38;;;;;;;9.60;6.70;;;8.80;29.70;;;;;;4996508;28;20462;-83
2022/04/24 02:20:06;;;;;;;9.00;6.33;;;8.90;31.40;;;;;;4995642;28;20466;-83
2022/04/24 02:22:33;;;;;;;8.80;6.50;;;8.90;31.10;;;;;;4996805;28;20460;-83
2022/04/24 02:25:00;;;;;;;11.37;6.67;;;8.90;31.30;;;;;;4997703;28;20481;-83
2022/04/24 02:27:27;;;;;;;11.37;7.67;;;9.00;31.30;;;;;;4996531;28;20986;-83
2022/04/24 02:29:55;;;;;;;10.77;8.43;;;8.80;32.10;;;;;;4996510;28;20477;-84
2022/04/24 02:32:22;;;;;;;11.70;7.10;;;8.60;32.50;;;;;;4996959;28;20481;-83
2022/04/24 02:34:49;;;;;;;11.70;7.10;;;8.60;33.40;;;;;;4997850;28;20465;-83
2022/04/24 02:37:16;;;;;;;12.17;7.20;;;8.70;34.00;;;;;;4996772;28;20461;-83
2022/04/24 02:39:43;;;;;;;9.90;7.37;;;8.60;34.80;;;;;;4995192;28;20556;-84
2022/04/24 02:42:09;;;;;;;9.53;7.30;;;8.60;34.70;;;;;;4996870;28;20465;-83
2022/04/24 02:44:36;;;;;;;10.50;7.50;;;8.40;36.00;;;;;;4996889;28;20461;-83
2022/04/24 02:47:05;;;;;;;10.60;8.33;;;8.50;35.60;;;;;;4996284;28;20469;-83
2022/04/24 02:49:31;;;;;;;11.60;8.20;;;8.50;36.70;;;;;;4995405;28;20454;-83
2022/04/24 02:51:58;;;;;;;10.13;7.07;;;8.50;37.20;;;;;;5002859;23;20498;-80
2022/04/24 02:54:25;;;;;;;12.80;8.63;;;8.50;37.20;;;;;;4977020;28;20451;-81
2022/04/24 02:56:52;;;;;;;11.07;8.30;;;8.50;37.20;;;;;;4977551;28;20844;-81
2022/04/24 02:59:18;;;;;;;10.20;8.60;;;8.50;37.10;;;;;;4977184;28;20497;-81
2022/04/24 03:01:45;;;;;;;10.67;7.87;;;8.40;37.50;;;;;;4978272;28;20482;-81
2022/04/24 03:04:13;;;;;;;10.97;8.90;;;8.40;38.00;;;;;;4977538;28;20455;-81
2022/04/24 03:06:40;;;;;;;11.13;9.10;;;8.20;38.00;;;;;;4977640;28;20458;-81
2022/04/24 03:09:07;;;;;;;12.00;8.77;;;8.10;40.40;;;;;;4976804;28;20545;-81
2022/04/24 03:11:34;;;;;;;12.20;9.40;;;8.10;40.80;;;;;;4977768;28;20501;-82
2022/04/24 03:14:01;;;;;;;10.90;9.37;;;8.10;40.60;;;;;;4975679;28;20466;-81
2022/04/24 03:16:28;;;;;;;11.43;8.33;;;8.20;39.80;;;;;;4976354;28;20831;-79
2022/04/24 03:18:55;;;;;;;10.37;7.90;;;8.20;39.70;;;;;;4974843;28;20491;-80
2022/04/24 03:21:23;;;;;;;11.00;8.47;;;8.30;39.50;;;;;;4976339;28;21021;-79
2022/04/24 03:23:49;;;;;;;11.43;8.10;;;8.30;39.70;;;;;;4975839;28;20455;-81
2022/04/24 03:26:16;;;;;;;9.23;7.80;;;8.20;38.90;;;;;;4977654;28;20459;-81
2022/04/24 03:28:43;;;;;;;13.93;9.00;;;8.30;39.60;;;;;;4976019;28;20458;-80
2022/04/24 03:31:12;;;;;;;10.00;7.80;;;8.30;38.90;;;;;;4981157;28;20479;-79
2022/04/24 03:33:38;;;;;;;15.57;9.37;;;8.20;39.30;;;;;;4980584;28;20454;-80
2022/04/24 03:36:05;;;;;;;11.43;8.60;;;8.20;39.10;;;;;;4980932;28;20455;-80
2022/04/24 03:38:33;;;;;;;11.73;8.87;;;8.20;40.50;;;;;;4979586;28;20482;-81
2022/04/24 03:41:01;;;;;;;13.07;9.33;;;8.10;40.40;;;;;;4980453;28;20478;-80
2022/04/24 03:43:28;;;;;;;12.27;9.83;;;7.90;41.80;;;;;;4980407;28;20538;-81
2022/04/24 03:45:55;;;;;;;11.40;9.37;;;7.80;41.80;;;;;;4980107;28;20461;-79
2022/04/24 03:48:21;;;;;;;12.03;9.83;;;8.00;41.80;;;;;;4978578;28;20465;-81
2022/04/24 03:50:48;;;;;;;11.33;10.13;;;8.00;41.70;;;;;;4980304;28;20483;-80
2022/04/24 03:53:15;;;;;;;12.60;9.83;;;8.00;41.90;;;;;;4981086;28;20459;-82
2022/04/24 03:55:43;;;;;;;13.67;10.53;;;8.00;42.30;;;;;;4977451;28;20505;-82
2022/04/24 03:58:10;;;;;;;11.53;9.27;;;8.00;42.10;;;;;;4978609;28;20466;-81
2022/04/24 04:00:36;;;;;;;11.63;8.80;;;8.10;41.90;;;;;;4980225;28;20474;-81
2022/04/24 04:03:03;;;;;;;15.63;10.10;;;8.00;42.30;;;;;;4978993;28;20451;-82
2022/04/24 04:05:30;;;;;;;12.40;9.53;;;7.80;42.90;;;;;;4981321;28;20455;-81
2022/04/24 04:07:57;;;;;;;15.50;9.73;;;7.70;42.90;;;;;;4980789;28;20525;-82
2022/04/24 04:10:24;;;;;;;13.77;10.03;;;7.80;43.00;;;;;;4977330;28;20471;-79
2022/04/24 04:12:52;;;;;;;12.00;9.57;;;7.70;43.90;;;;;;4979910;28;20454;-82
2022/04/24 04:15:19;;;;;;;13.83;10.87;;;7.70;43.90;;;;;;4979558;28;20459;-80
2022/04/24 04:17:45;;;;;;;14.10;11.40;;;7.60;45.10;;;;;;4978301;28;21055;-81
2022/04/24 04:20:13;;;;;;;12.50;10.23;;;7.40;46.30;;;;;;4980585;28;20482;-81
2022/04/24 04:22:51;;;;;;;12.03;10.73;;;7.40;46.80;;;;;;4981924;28;20486;-80
2022/04/24 04:25:18;;;;;;;15.23;12.37;;;7.30;47.70;;;;;;4978635;28;20455;-80
2022/04/24 04:27:45;;;;;;;14.00;11.63;;;7.10;50.50;;;;;;4980597;28;20453;-81
2022/04/24 04:30:13;;;;;;;14.33;12.27;;;7.00;51.60;;;;;;4980067;28;20451;-80
2022/04/24 04:32:40;;;;;;;14.27;10.47;;;6.90;52.70;;;;;;4977163;28;20470;-81
2022/04/24 04:35:09;;;;;;;14.37;11.03;;;6.80;53.60;;;;;;4968969;28;20451;-82
2022/04/24 04:37:36;;;;;;;12.23;10.40;;;7.10;51.00;;;;;;4979878;28;20514;-82
2022/04/24 04:40:03;;;;;;;14.53;11.53;;;7.20;52.20;;;;;;4976661;28;20475;-80
2022/04/24 04:42:30;;;;;;;12.07;10.77;;;7.20;52.90;;;;;;4979801;28;20459;-82
2022/04/24 04:44:59;;;;;;;14.63;10.23;;;7.50;51.00;;;;;;4979790;28;20466;-83
2022/04/24 04:47:27;;;;;;;15.30;12.50;;;7.60;49.60;;;;;;4978183;28;21181;-82
2022/04/24 04:49:54;;;;;;;12.40;9.40;;;7.70;47.70;;;;;;4979684;28;20479;-82
2022/04/24 04:52:21;;;;;;;11.63;8.90;;;7.70;48.20;;;;;;4979414;28;21028;-80
2022/04/24 04:54:48;;;;;;;11.40;10.17;;;8.00;45.60;;;;;;4978203;28;20455;-81
2022/04/24 04:57:14;;;;;;;11.73;10.03;;;8.00;44.50;;;;;;4974059;28;20464;-81
2022/04/24 04:59:41;;;;;;;11.57;8.47;;;8.30;44.00;;;;;;4970589;28;21121;-81
2022/04/24 05:02:10;;;;;;;12.93;10.83;;;8.50;43.10;;;;;;4978224;28;20475;-81
2022/04/24 05:04:43;;;;;;;13.53;10.57;;;8.50;43.50;;;;;;4979661;28;20804;-81
2022/04/24 05:07:10;;;;;;;12.00;10.20;;;8.50;43.40;;;;;;4979332;28;20538;-82
2022/04/24 05:09:36;;;;;;;12.20;9.70;;;8.50;43.10;;;;;;4978980;28;20455;-81
2022/04/24 05:12:04;;;;;;;12.63;8.83;;;8.40;43.20;;;;;;4980246;28;20474;-81
2022/04/24 05:14:31;;;;;;;13.17;9.27;;;8.60;42.50;;;;;;4980855;28;20447;-81
2022/04/24 05:16:58;;;;;;;12.97;10.93;;;8.70;40.90;;;;;;4980375;28;20451;-81
2022/04/24 05:19:25;;;;;;;12.67;10.90;;;8.70;42.40;;;;;;4979590;28;20481;-81
2022/04/24 05:21:53;;;;;;;15.03;11.97;;;8.60;43.40;;;;;;4980092;28;20483;-81
2022/04/24 05:24:20;;;;;;;15.60;12.00;;;8.90;42.60;;;;;;4979159;28;20455;-81
2022/04/24 05:26:47;;;;;;;14.80;10.67;;;8.90;43.90;;;;;;4978526;28;20459;-81
2022/04/24 05:29:14;;;;;;;14.43;9.70;;;9.10;40.90;;;;;;4978034;28;20455;-82
2022/04/24 05:31:41;;;;;;;14.23;10.50;;;9.50;39.20;;;;;;4977645;28;20483;-82
2022/04/24 05:34:08;;;;;;;12.97;10.40;;;9.60;38.60;;;;;;4979901;28;20459;-82
2022/04/24 05:36:34;;;;;;;13.63;11.10;;;10.00;35.00;;;;;;4977506;28;20455;-82
2022/04/24 05:39:03;;;;;;;12.43;10.77;;;10.10;32.40;;;;;;4977845;28;20474;-81
2022/04/24 05:41:29;;;;;;;13.23;10.93;;;10.30;31.40;;;;;;4979260;28;20485;-82
2022/04/24 05:43:56;;;;;;;13.40;9.50;;;10.60;30.80;;;;;;4976894;28;20966;-82
2022/04/24 05:46:23;;;;;;;12.37;9.37;;;10.50;29.30;;;;;;4978161;28;20462;-81
2022/04/24 05:48:50;;;;;;;11.60;9.20;;;10.40;30.30;;;;;;4979098;28;20834;-82
2022/04/24 05:51:16;;;;;;;12.70;10.50;;;10.30;30.00;;;;;;4976654;28;20538;-81
2022/04/24 05:53:43;;;;;;;11.77;9.63;;;10.40;31.60;;;;;;4978919;28;20463;-81
2022/04/24 05:56:11;;;;;;;14.70;9.63;;;10.40;30.20;;;;;;4979743;28;20455;-81
2022/04/24 05:58:38;;;;;;;12.67;8.90;;;10.40;30.80;;;;;;4975948;28;20459;-82
2022/04/24 06:01:04;;;;;;;12.20;9.33;;;10.50;29.40;;;;;;4977855;28;20489;-80
2022/04/24 06:03:31;;;;;;;11.57;9.77;;;10.70;29.50;;;;;;4975412;28;20462;-81
2022/04/24 06:05:58;;;;;;;11.40;8.63;;;10.80;27.50;;;;;;4974936;28;20451;-82
2022/04/24 06:08:28;;;;;;;13.57;9.67;;;10.90;27.70;;;;;;4978104;28;20541;-81
2022/04/24 06:10:55;;;;;;;15.37;9.40;;;11.10;27.80;;;;;;4976050;28;20995;-82
2022/04/24 06:13:29;;;;;;;13.67;9.90;;;11.10;27.80;;;;;;4976679;28;20466;-82
2022/04/24 06:15:57;;;;;;;13.60;10.87;;;11.00;27.70;;;;;;4978328;28;20446;-81
2022/04/24 06:18:24;;;;;;;15.80;10.53;;;11.20;27.80;;;;;;4978812;28;20451;-82
2022/04/24 06:20:51;;;;;;;11.03;8.90;;;11.40;28.00;;;;;;4976428;28;20483;-81
2022/04/24 06:23:18;;;;;;;9.47;7.50;;;11.40;27.50;;;;;;4979173;28;20451;-82
2022/04/24 06:25:45;;;;;;;13.40;10.77;;;11.50;28.10;;;;;;4976681;28;20451;-81
2022/04/24 06:28:12;;;;;;;12.00;10.00;;;11.60;26.30;;;;;;4977653;28;20455;-83
2022/04/24 06:30:41;;;;;;;14.60;8.90;;;11.70;26.30;;;;;;4976504;28;20475;-81
2022/04/24 06:33:08;;;;;;;13.37;7.53;;;11.80;24.00;;;;;;4975964;28;20498;-81
2022/04/24 06:35:35;;;;;;;15.00;10.77;;;11.80;24.90;;;;;;4976886;28;20462;-81
2022/04/24 06:38:01;;;;;;;13.70;9.27;;;11.60;26.10;;;;;;4975859;28;20455;-81
2022/04/24 06:40:28;;;;;;;12.00;9.70;;;11.50;26.70;;;;;;4975616;28;20479;-81
2022/04/24 06:42:57;;;;;;;13.93;9.63;;;11.30;26.90;;;;;;4976385;28;20462;-81
2022/04/24 06:45:26;;;;;;;12.87;9.03;;;11.20;27.80;;;;;;4977915;28;20455;-81
2022/04/24 06:47:54;;;;;;;12.10;10.67;;;11.20;27.30;;;;;;4976998;28;20483;-80
2022/04/24 06:50:23;;;;;;;17.57;11.03;;;11.20;27.80;;;;;;4976774;28;20514;-81
2022/04/24 06:52:57;;;;;;;14.40;9.20;;;11.30;27.90;;;;;;4977445;28;20458;-81
2022/04/24 06:55:24;;;;;;;11.80;8.70;;;11.60;26.90;;;;;;4978426;28;20458;-81
2022/04/24 06:57:51;;;;;;;15.63;10.27;;;11.70;25.80;;;;;;4977166;28;20983;-81
2022/04/24 07:00:20;;;;;;;13.17;9.80;;;11.90;25.90;;;;;;4975760;28;20471;-81
2022/04/24 07:02:46;;;;;;;13.57;10.93;;;12.10;24.10;;;;;;4977088;28;20458;-81
2022/04/24 07:05:15;;;;;;;12.07;9.23;;;12.30;22.70;;;;;;4977263;28;20842;-81
2022/04/24 07:07:42;;;;;;;13.23;10.63;;;12.50;23.70;;;;;;4976485;28;20819;-81
2022/04/24 07:10:10;;;;;;;13.60;9.20;;;12.70;22.50;;;;;;4976174;28;20455;-83
2022/04/24 07:12:45;;;;;;;12.43;9.80;;;12.80;21.90;;;;;;4976387;28;20462;-81
2022/04/24 07:15:13;;;;;;;15.30;10.30;;;12.90;21.90;;;;;;4976509;28;20492;-81
2022/04/24 07:17:40;;;;;;;10.93;8.40;;;12.90;21.10;;;;;;4975765;28;20538;-81
2022/04/24 07:20:07;;;;;;;14.10;9.80;;;13.00;20.40;;;;;;4974697;28;20475;-82
2022/04/24 07:22:43;;;;;;;14.90;9.77;;;13.10;19.90;;;;;;4973318;28;20451;-81
2022/04/24 07:25:11;;;;;;;14.53;9.20;;;13.10;19.70;;;;;;4973860;28;20845;-81
2022/04/24 07:27:39;;;;;;;14.67;9.40;;;13.20;20.00;;;;;;4974528;28;20831;-82
2022/04/24 07:30:13;;;;;;;14.70;9.50;;;13.30;19.60;;;;;;4974819;28;20479;-81
2022/04/24 07:32:40;;;;;;;13.50;9.83;;;13.50;19.40;;;;;;4975258;28;20868;-82
2022/04/24 07:35:10;;;;;;;14.40;9.80;;;13.80;18.90;;;;;;4974896;28;20451;-82
2022/04/24 07:37:37;;;;;;;12.67;10.50;;;13.80;18.60;;;;;;4975618;28;20509;-81
2022/04/24 07:40:06;;;;;;;14.10;9.50;;;13.60;16.00;;;;;;4974713;28;20470;-82
2022/04/24 07:42:43;;;;;;;13.47;9.67;;;13.50;17.60;;;;;;4976313;28;20455;-82
2022/04/24 07:45:10;;;;;;;13.93;10.80;;;13.70;19.20;;;;;;4975333;28;20811;-82
2022/04/24 07:47:37;;;;;;;15.00;9.47;;;13.90;19.00;;;;;;4973255;28;20458;-81
2022/04/24 07:50:04;;;;;;;13.00;9.80;;;14.10;18.20;;;;;;4975134;28;20457;-82
2022/04/24 07:52:31;;;;;;;12.75;9.82;;;14.10;17.10;;;;;;4975838;28;20475;-81
2022/04/24 07:54:57;;;;;;;10.83;6.80;;;14.30;18.50;;;;;;4974632;28;20188;-81
2022/04/24 07:57:25;;;;;;;12.23;8.20;;;14.20;16.30;;;;;;4969570;28;20451;-82
2022/04/24 07:59:52;;;;;;;12.00;9.53;;;14.30;17.40;;;;;;4976848;28;20744;-86
2022/04/24 08:02:19;;;;;;;12.83;8.27;;;14.60;18.50;;;;;;4977171;28;20485;-82
2022/04/24 08:04:45;;;;;;;14.30;10.10;;;14.30;16.10;;;;;;4974781;28;20462;-82
2022/04/24 08:07:12;;;;;;;12.73;10.23;;;14.70;15.90;;;;;;4976014;28;20547;-82
2022/04/24 08:09:39;;;;;;;14.00;10.43;;;14.40;15.50;;;;;;4973719;28;20452;-81
2022/04/24 08:12:06;;;;;;;13.77;11.27;;;14.60;14.80;;;;;;4976097;28;20480;-81
2022/04/24 08:14:34;;;;;;;12.70;9.23;;;14.80;15.30;;;;;;4975324;28;20454;-82
2022/04/24 08:17:01;;;;;;;13.10;10.07;;;14.80;13.50;;;;;;4980168;28;20460;-82
2022/04/24 08:19:28;;;;;;;11.30;7.50;;;15.10;14.00;;;;;;4978657;28;20838;-82
2022/04/24 08:21:54;;;;;;;11.93;6.07;;;14.90;13.30;;;;;;4978407;28;20493;-82
2022/04/24 08:24:21;;;;;;;9.00;5.70;;;15.00;11.90;;;;;;4978282;28;20982;-81
2022/04/24 08:26:48;;;;;;;13.00;10.30;;;14.90;12.20;;;;;;4978528;28;20457;-83
2022/04/24 08:29:15;;;;;;;14.23;9.40;;;15.50;14.60;;;;;;4976721;28;20964;-82
2022/04/24 08:31:43;;;;;;;12.17;8.77;;;15.60;12.00;;;;;;4977197;28;20481;-82
2022/04/24 08:34:09;;;;;;;10.47;7.00;;;15.30;10.70;;;;;;4977091;28;20970;-82
2022/04/24 08:36:36;;;;;;;10.00;7.87;;;15.50;13.10;;;;;;4978571;28;20460;-82
2022/04/24 08:39:03;;;;;;;14.30;9.60;;;15.90;12.80;;;;;;4977401;28;20851;-82
2022/04/24 08:41:32;;;;;;;12.10;7.27;;;15.90;10.20;;;;;;4978540;28;20487;-82
2022/04/24 08:43:59;;;;;;;9.93;7.53;;;16.00;8.40;;;;;;4978860;28;20451;-83
2022/04/24 08:46:27;;;;;;;9.70;6.90;;;16.40;12.10;;;;;;4979412;28;20500;-82
2022/04/24 08:48:55;;;;;;;10.87;8.10;;;15.90;9.60;;;;;;4977874;28;20461;-84
2022/04/24 08:51:23;;;;;;;11.87;8.57;;;16.30;9.50;;;;;;4999587;23;20546;-80
2022/04/24 08:53:50;;;;;;;11.00;8.90;;;16.80;9.90;;;;;;4980479;28;20462;-83
2022/04/24 08:56:17;;;;;;;13.10;9.30;;;17.00;6.10;;;;;;4981173;28;20452;-83
2022/04/24 08:58:46;;;;;;;13.77;8.40;;;17.40;5.70;;;;;;4980352;28;20448;-84
2022/04/24 09:01:12;;;;;;;10.93;9.70;;;17.20;8.80;;;;;;4982177;28;20534;-82
2022/04/24 09:03:39;;;;;;;11.57;8.73;;;17.30;3.20;;;;;;4981866;28;20629;-81
2022/04/24 09:06:07;;;;;;;12.70;9.07;;;17.20;4.40;;;;;;4980156;28;20463;-82
2022/04/24 09:08:35;;;;;;;10.57;8.27;;;17.40;6.00;;;;;;4979950;28;20448;-81
2022/04/24 09:11:02;;;;;;;15.63;11.03;;;17.30;5.60;;;;;;4980558;28;20535;-83
2022/04/24 09:13:31;;;;;;;12.30;7.57;;;17.60;6.30;;;;;;4978549;28;20544;-81
2022/04/24 09:15:59;;;;;;;11.00;9.77;;;17.80;3.00;;;;;;4979758;28;20460;-81
2022/04/24 09:18:41;;;;;;;11.57;9.07;;;18.20;3.20;;;;;;4980554;28;20462;-82
2022/04/24 09:21:13;;;;;;;11.90;9.67;;;18.20;1.30;;;;;;4981582;28;20489;-81
2022/04/24 09:23:42;;;;;;;13.37;9.90;;;18.40;2.50;;;;;;4982795;28;20465;-82
2022/04/24 09:26:15;;;;;;;13.37;9.90;;;19.20;2.20;;;;;;4980402;28;20825;-83
2022/04/24 09:28:42;;;;;;;14.20;10.37;;;18.80;1.60;;;;;;4982032;28;20447;-82
2022/04/24 09:31:14;;;;;;;13.23;6.97;;;18.70;3.60;;;;;;4982340;28;20481;-82
2022/04/24 09:33:42;;;;;;;12.97;9.30;;;18.60;2.20;;;;;;4980516;28;20459;-81
2022/04/24 09:36:15;;;;;;;13.13;8.27;;;18.30;1.70;;;;;;4981969;28;20453;-81
2022/04/24 09:38:44;;;;;;;13.13;9.70;;;17.70;2.90;;;;;;4981290;28;20468;-82
2022/04/24 09:41:18;;;;;;;14.87;9.80;;;17.70;4.10;;;;;;4979576;28;20490;-82
2022/04/24 09:43:45;;;;;;;12.70;9.83;;;17.90;3.10;;;;;;4981119;28;20463;-81
2022/04/24 09:46:12;;;;;;;12.20;9.30;;;18.50;1.00;;;;;;4981712;28;20462;-80
2022/04/24 09:48:39;;;;;;;11.17;8.30;;;18.70;2.00;;;;;;4979516;28;20462;-81
2022/04/24 09:51:07;;;;;;;10.33;8.00;;;19.10;1.00;;;;;;4979306;28;20478;-81
2022/04/24 09:53:41;;;;;;;13.07;9.80;;;19.20;1.00;;;;;;4982059;28;20490;-80
2022/04/24 09:56:09;;;;;;;11.50;8.43;;;19.50;1.00;;;;;;4979015;28;20462;-81
2022/04/24 09:58:37;;;;;;;10.30;7.27;;;18.90;1.00;;;;;;4981015;28;20217;-82
2022/04/24 10:01:06;;;;;;;14.67;11.10;;;19.20;1.00;;;;;;4982623;28;20905;-82
2022/04/24 10:03:39;;;;;;;13.33;10.40;;;19.50;1.00;;;;;;4982529;28;20838;-82
2022/04/24 10:06:08;;;;;;;11.53;9.30;;;19.80;1.00;;;;;;4982912;28;20456;-82
2022/04/24 10:08:40;;;;;;;13.10;10.63;;;20.10;1.00;;;;;;4979762;28;21086;-82
2022/04/24 10:11:08;;;;;;;8.20;5.60;;;20.00;1.00;;;;;;4983044;28;20481;-82
2022/04/24 10:13:43;;;;;;;10.83;8.53;;;19.50;1.00;;;;;;4982429;28;20458;-82
2022/04/24 10:16:29;;;;;;;13.33;9.30;;;20.00;1.00;;;;;;4981342;28;20445;-80
2022/04/24 10:18:59;;;;;;;10.53;7.67;;;20.00;1.00;;;;;;4981838;28;20453;-81
2022/04/24 10:21:58;;;;;;;13.60;9.53;;;20.10;1.00;;;;;;4981629;28;20484;-82
2022/04/24 10:24:39;;;;;;;14.68;9.07;;;20.00;1.00;;;;;;4976319;28;20461;-80
2022/04/24 10:27:07;;;;;;;9.90;6.80;;;20.20;1.00;;;;;;4981476;28;20208;-82
2022/04/24 10:29:33;;;;;;;11.70;7.27;;;19.90;1.00;;;;;;4980904;28;21034;-84
2022/04/24 10:32:01;;;;;;;13.67;8.93;;;20.40;1.00;;;;;;4981384;28;21020;-82
2022/04/24 10:34:51;;;;;;;11.27;7.30;;;19.80;1.00;;;;;;4982002;28;20452;-82
2022/04/24 10:37:26;;;;;;;12.60;9.87;;;19.60;1.00;;;;;;4980698;28;20839;-82
2022/04/24 10:39:58;;;;;;;13.60;9.47;;;20.10;1.00;;;;;;4978813;28;20464;-82
2022/04/24 10:42:31;;;;;;;10.30;7.27;;;20.30;1.00;;;;;;4981038;28;20496;-82
2022/04/24 10:45:05;;;;;;;14.97;8.37;;;20.20;1.00;;;;;;4980886;28;20457;-84
2022/04/24 10:47:42;;;;;;;13.00;9.23;;;20.30;1.00;;;;;;4981174;28;20485;-82
2022/04/24 10:50:12;;;;;;;11.50;9.60;;;20.50;1.00;;;;;;4981054;28;20967;-81
2022/04/24 10:52:40;;;;;;;13.40;9.30;;;21.00;1.00;;;;;;4981392;28;20523;-81
2022/04/24 10:55:09;;;;;;;14.70;8.90;;;21.00;1.00;;;;;;4982216;28;20465;-82
2022/04/24 10:57:41;;;;;;;11.50;9.30;;;21.70;1.00;;;;;;4982240;28;20458;-83
2022/04/24 11:00:16;;;;;;;12.03;8.47;;;21.30;1.00;;;;;;4980820;28;20454;-85
2022/04/24 11:02:43;;;;;;;13.00;8.77;;;21.40;1.00;;;;;;4981585;28;20849;-83
2022/04/24 11:05:10;;;;;;;13.27;10.20;;;22.10;1.00;;;;;;4981591;28;20459;-82
2022/04/24 11:07:37;;;;;;;12.47;10.17;;;21.40;1.00;;;;;;4981249;28;20459;-83
2022/04/24 11:10:06;;;;;;;12.13;7.83;;;21.20;1.00;;;;;;4981143;28;20977;-82
2022/04/24 11:12:34;;;;;;;11.27;8.50;;;21.10;1.00;;;;;;4981124;28;20471;-82
2022/04/24 11:15:06;;;;;;;11.67;8.27;;;21.10;1.00;;;;;;4982207;28;20447;-82
2022/04/24 11:17:33;;;;;;;12.30;9.77;;;21.40;1.00;;;;;;4981690;28;20463;-81
2022/04/24 11:20:03;;;;;;;12.17;9.10;;;22.20;1.00;;;;;;4980627;28;20455;-82
2022/04/24 11:22:31;;;;;;;10.60;8.03;;;21.70;1.00;;;;;;4981885;28;20540;-83
2022/04/24 11:25:01;;;;;;;10.77;8.63;;;22.50;1.00;;;;;;4980650;28;20465;-81
2022/04/24 11:27:27;;;;;;;11.53;9.30;;;22.00;1.00;;;;;;4981152;28;20464;-82
2022/04/24 11:29:56;;;;;;;13.77;8.13;;;21.90;1.00;;;;;;4980574;28;20825;-82
2022/04/24 11:32:23;;;;;;;12.43;7.50;;;21.80;1.00;;;;;;4981857;28;20477;-82
2022/04/24 11:34:50;;;;;;;9.60;7.70;;;22.10;1.00;;;;;;4981411;28;20458;-83
2022/04/24 11:37:17;;;;;;;10.37;7.30;;;22.80;1.00;;;;;;4981500;28;20462;-82
2022/04/24 11:39:43;;;;;;;13.23;8.00;;;22.70;1.00;;;;;;4979431;28;20454;-82
2022/04/24 11:42:10;;;;;;;8.63;5.60;;;23.10;1.00;;;;;;4982306;28;20486;-82
2022/04/24 11:50:14;;;;;;;9.57;7.67;;;22.50;1.00;;;;;;4982444;28;20450;-84
2022/04/24 11:52:43;;;;;;;11.27;8.50;;;23.40;1.00;;;;;;4985176;28;20482;-83
2022/04/24 11:55:11;;;;;;;14.50;7.73;;;23.10;1.00;;;;;;4985215;28;20459;-83
2022/04/24 11:57:38;;;;;;;9.20;6.57;;;23.40;1.00;;;;;;4986363;28;20454;-82
2022/04/24 12:00:09;;;;;;;12.67;8.43;;;22.70;1.00;;;;;;4983948;28;20454;-82
2022/04/24 12:02:37;;;;;;;15.50;7.83;;;23.30;1.00;;;;;;4985103;28;20520;-82
2022/04/24 12:05:09;;;;;;;9.67;7.63;;;23.30;1.00;;;;;;4985173;28;20987;-81
2022/04/24 12:07:37;;;;;;;11.80;7.37;;;23.30;1.00;;;;;;4984346;28;20455;-84
2022/04/24 12:10:05;;;;;;;8.67;6.60;;;23.20;1.00;;;;;;4985018;28;20454;-85
2022/04/24 12:12:43;;;;;;;10.70;8.57;;;23.30;1.00;;;;;;4984975;28;20475;-83
2022/04/24 12:15:20;;;;;;;8.73;7.00;;;23.10;1.00;;;;;;4984153;28;20460;-82
2022/04/24 12:18:12;;;;;;;11.03;6.20;;;22.80;1.00;;;;;;4984684;28;20454;-82
2022/04/24 12:20:41;;;;;;;10.17;7.20;;;22.70;1.00;;;;;;4983921;28;20973;-84
2022/04/24 12:23:12;;;;;;;12.50;7.70;;;21.80;1.00;;;;;;4984804;28;20477;-82
2022/04/24 12:26:11;;;;;;;8.37;6.40;;;22.00;1.00;;;;;;4984117;28;20462;-84
2022/04/24 12:28:44;;;;;;;13.33;7.30;;;22.70;1.00;;;;;;4982748;28;20455;-82
2022/04/24 12:31:22;;;;;;;7.73;5.23;;;22.20;1.00;;;;;;4984270;28;20544;-81
2022/04/24 12:33:52;;;;;;;9.63;6.33;;;22.20;1.00;;;;;;4984164;28;20506;-82
2022/04/24 12:36:20;;;;;;;10.00;6.60;;;21.70;1.00;;;;;;4985259;28;20462;-82
2022/04/24 12:38:57;;;;;;;10.77;7.50;;;22.30;1.00;;;;;;4981826;28;20538;-82
2022/04/24 12:41:26;;;;;;;7.83;4.10;;;22.50;1.00;;;;;;4984301;28;21025;-82
2022/04/24 12:43:53;;;;;;;14.53;6.27;;;22.40;1.00;;;;;;4983917;28;20458;-83
2022/04/24 12:46:20;;;;;;;7.30;5.43;;;23.00;1.00;;;;;;4984429;28;20454;-83
2022/04/24 12:48:50;;;;;;;8.63;7.60;;;22.70;1.00;;;;;;4983277;28;20455;-82
2022/04/24 12:51:18;;;;;;;9.27;7.67;;;22.50;1.00;;;;;;4983964;28;20493;-82
2022/04/24 12:53:45;;;;;;;15.03;7.07;;;21.80;1.00;;;;;;4984125;28;20458;-82
2022/04/24 12:56:12;;;;;;;11.93;7.43;;;20.60;1.00;;;;;;4983439;28;20463;-82
2022/04/24 12:58:39;;;;;;;11.03;7.40;;;20.40;1.00;;;;;;4982831;28;20536;-82